createdAt,value
2019-05-23T00:01:05.795Z,69.28
2019-05-23T00:04:04.057Z,70.26
2019-05-23T00:06:54.021Z,70.20
2019-05-23T00:09:43.441Z,69.84
2019-05-23T00:12:33.048Z,70.16
2019-05-23T00:15:23.195Z,69.85
2019-05-23T00:17:54.744Z,70.38
2019-05-23T00:20:25.834Z,70.03
2019-05-23T00:22:57.463Z,70.56
2019-05-23T00:25:30.480Z,70.44
2019-05-23T00:28:04.875Z,70.09
2019-05-23T00:30:44.991Z,70.59
2019-05-23T00:33:21.214Z,70.97
2019-05-23T00:35:52.621Z,71.19
2019-05-23T00:38:24.912Z,70.88
2019-05-23T00:40:56.492Z,70.64
2019-05-23T00:43:27.919Z,70.42
2019-05-23T00:45:59.944Z,70.42
2019-05-23T00:48:32.013Z,69.51
2019-05-23T00:51:05.325Z,71.41
2019-05-23T00:53:36.792Z,71.42
2019-05-23T00:56:09.689Z,71.38
2019-05-23T00:58:41.075Z,72.11
2019-05-23T01:01:13.450Z,71.00
2019-05-23T01:03:45.514Z,71.24
2019-05-23T01:06:17.915Z,70.30
2019-05-23T01:08:50.098Z,71.31
2019-05-23T01:11:21.574Z,71.23
2019-05-23T01:13:52.658Z,71.35
2019-05-23T01:16:24.147Z,70.96
2019-05-23T01:18:55.737Z,70.72
2019-05-23T01:21:55.086Z,71.49
2019-05-23T01:24:30.387Z,72.40
2019-05-23T01:27:02.343Z,72.16
2019-05-23T01:29:39.686Z,72.07
2019-05-23T01:32:25.749Z,71.70
2019-05-23T01:34:58.758Z,71.35
2019-05-23T01:37:30.726Z,71.52
2019-05-23T01:40:02.070Z,71.47
2019-05-23T01:42:35.091Z,71.47
2019-05-23T01:45:08.717Z,72.97
2019-05-23T01:47:40.568Z,72.77
2019-05-23T01:50:14.063Z,72.93
2019-05-23T01:52:45.504Z,72.93
2019-05-23T01:55:17.160Z,71.96
2019-05-23T01:57:49.102Z,72.12
2019-05-23T02:00:21.179Z,71.99
2019-05-23T02:02:54.832Z,72.00
2019-05-23T02:05:26.061Z,72.02
2019-05-23T02:07:58.297Z,73.07
2019-05-23T02:10:29.356Z,73.07
2019-05-23T02:13:00.912Z,73.29
2019-05-23T02:15:33.327Z,72.19
2019-05-23T02:18:04.596Z,71.98
2019-05-23T02:20:37.941Z,72.30
2019-05-23T02:23:09.577Z,71.69
2019-05-23T02:25:42.831Z,72.10
2019-05-23T02:28:15.267Z,71.22
2019-05-23T02:30:47.842Z,71.80
2019-05-23T02:33:19.614Z,71.92
2019-05-23T02:35:51.710Z,72.02
2019-05-23T02:38:31.325Z,71.60
2019-05-23T02:41:20.049Z,71.59
2019-05-23T02:43:54.823Z,71.11
2019-05-23T02:46:31.579Z,71.85
2019-05-23T02:49:07.259Z,72.35
2019-05-23T02:51:39.254Z,72.68
2019-05-23T02:54:13.965Z,73.09
2019-05-23T02:56:45.954Z,72.38
2019-05-23T02:59:35.371Z,71.71
2019-05-23T03:03:02.365Z,71.72
2019-05-23T03:05:37.566Z,72.35
2019-05-23T03:08:10.086Z,71.98
2019-05-23T03:10:54.537Z,72.50
2019-05-23T03:13:28.491Z,73.30
2019-05-23T03:16:00.980Z,72.62
2019-05-23T03:18:35.773Z,72.45
2019-05-23T03:21:09.204Z,72.64
2019-05-23T03:23:40.576Z,72.82
2019-05-23T03:26:44.115Z,72.86
2019-05-23T03:29:16.132Z,72.96
2019-05-23T03:32:04.962Z,73.27
2019-05-23T03:34:36.739Z,73.05
2019-05-23T03:37:07.892Z,72.54
2019-05-23T03:39:39.766Z,72.50
2019-05-23T03:42:12.685Z,73.68
2019-05-23T03:44:45.072Z,73.59
2019-05-23T03:47:18.414Z,74.21
2019-05-23T03:49:50.234Z,74.30
2019-05-23T03:52:23.663Z,74.98
2019-05-23T03:54:56.609Z,74.04
2019-05-23T03:57:29.232Z,73.45
2019-05-23T04:00:01.883Z,73.80
2019-05-23T04:02:33.102Z,74.24
2019-05-23T04:05:04.618Z,73.29
2019-05-23T04:07:36.449Z,73.08
2019-05-23T04:10:09.308Z,73.36
2019-05-23T04:12:40.597Z,73.96
2019-05-23T04:15:12.789Z,73.96
2019-05-23T04:17:44.303Z,74.15
2019-05-23T04:20:15.643Z,73.86
2019-05-23T04:22:46.604Z,73.87
2019-05-23T04:25:17.683Z,73.86
2019-05-23T04:27:49.119Z,73.81
2019-05-23T04:30:20.162Z,73.41
2019-05-23T04:32:51.134Z,72.89
2019-05-23T04:35:22.857Z,72.95
2019-05-23T04:37:54.276Z,72.09
2019-05-23T04:40:25.732Z,72.83
2019-05-23T04:42:57.021Z,73.27
2019-05-23T04:45:28.816Z,72.61
2019-05-23T04:48:00.266Z,72.44
2019-05-23T04:50:32.355Z,72.95
2019-05-23T04:53:04.305Z,73.40
2019-05-23T04:55:38.139Z,73.46
2019-05-23T04:58:09.805Z,73.74
2019-05-23T05:00:42.181Z,73.50
2019-05-23T05:03:18.385Z,73.09
2019-05-23T05:05:49.564Z,72.53
2019-05-23T05:08:23.177Z,72.26
2019-05-23T05:10:55.131Z,72.14
2019-05-23T05:13:26.836Z,72.15
2019-05-23T05:15:58.214Z,71.66
2019-05-23T05:18:30.006Z,71.36
2019-05-23T05:21:01.454Z,71.19
2019-05-23T05:23:32.796Z,70.67
2019-05-23T05:26:04.611Z,70.21
2019-05-23T05:28:36.184Z,69.76
2019-05-23T05:31:07.574Z,68.91
2019-05-23T05:33:39.561Z,69.18
2019-05-23T05:36:11.500Z,68.78
2019-05-23T05:38:42.653Z,68.48
2019-05-23T05:41:14.606Z,67.92
2019-05-23T05:43:46.209Z,67.94
2019-05-23T05:46:17.459Z,67.41
2019-05-23T05:48:48.499Z,67.10
2019-05-23T05:51:19.723Z,66.82
2019-05-23T05:53:51.243Z,66.42
2019-05-23T05:56:22.355Z,65.93
2019-05-23T05:58:53.487Z,66.33
2019-05-23T06:01:33.790Z,65.75
2019-05-23T06:03:57.942Z,65.89
2019-05-23T06:06:40.032Z,66.36
2019-05-23T06:09:21.383Z,65.34
2019-05-23T06:11:52.785Z,64.90
2019-05-23T06:14:24.351Z,64.68
2019-05-23T06:16:56.921Z,64.51
2019-05-23T06:19:28.241Z,64.83
2019-05-23T06:21:59.540Z,64.62
2019-05-23T06:24:44.883Z,64.52
2019-05-23T06:27:03.821Z,64.56
2019-05-23T06:29:34.855Z,63.85
2019-05-23T06:32:08.052Z,62.62
2019-05-23T06:34:39.298Z,61.46
2019-05-23T06:37:12.711Z,60.92
2019-05-23T06:39:43.954Z,59.91
2019-05-23T06:42:15.062Z,60.21
2019-05-23T06:44:47.094Z,59.88
2019-05-23T06:47:18.477Z,58.31
2019-05-23T06:49:49.587Z,59.08
2019-05-23T06:52:20.929Z,58.25
2019-05-23T06:54:51.928Z,56.75
2019-05-23T06:57:23.552Z,55.02
2019-05-23T06:59:54.907Z,54.47
2019-05-23T07:02:31.224Z,53.01
2019-05-23T07:04:59.953Z,53.77
2019-05-23T07:07:32.565Z,51.57
2019-05-23T07:10:05.623Z,50.43
2019-05-23T07:12:37.410Z,49.60
2019-05-23T07:15:09.069Z,47.72
2019-05-23T07:17:40.603Z,47.50
2019-05-23T07:20:12.912Z,46.43
2019-05-23T07:22:44.485Z,46.38
2019-05-23T07:25:15.461Z,44.79
2019-05-23T07:27:46.538Z,45.03
2019-05-23T07:30:21.309Z,43.17
2019-05-23T07:32:53.920Z,42.38
2019-05-23T07:35:25.989Z,40.79
2019-05-23T07:37:57.338Z,40.35
2019-05-23T07:40:28.904Z,39.57
2019-05-23T07:43:00.984Z,38.85
2019-05-23T07:45:39.894Z,36.79
2019-05-23T07:48:12.178Z,37.57
2019-05-23T07:50:44.345Z,36.86
2019-05-23T07:53:20.736Z,36.28
2019-05-23T07:55:52.988Z,37.35
2019-05-23T07:58:24.320Z,34.85
2019-05-23T08:00:58.955Z,32.66
2019-05-23T08:03:31.678Z,33.17
2019-05-23T08:06:03.067Z,34.42
2019-05-23T08:08:34.448Z,34.40
2019-05-23T08:11:05.565Z,34.56
2019-05-23T08:13:37.407Z,34.02
2019-05-23T08:16:08.934Z,33.77
2019-05-23T08:18:40.036Z,33.34
2019-05-23T08:21:11.285Z,33.39
2019-05-23T08:23:42.745Z,33.05
2019-05-23T08:26:15.387Z,31.53
2019-05-23T08:29:21.735Z,29.55
2019-05-23T08:31:20.270Z,28.53
2019-05-23T08:33:51.439Z,26.95
2019-05-23T08:36:22.981Z,27.87
2019-05-23T08:38:54.369Z,29.51
2019-05-23T08:41:25.680Z,28.82
2019-05-23T08:43:56.824Z,28.37
2019-05-23T08:46:28.480Z,29.51
2019-05-23T08:49:00.707Z,27.61
2019-05-23T08:51:32.858Z,26.92
2019-05-23T08:54:04.269Z,25.71
2019-05-23T08:56:35.286Z,25.13
2019-05-23T08:59:06.507Z,25.82
2019-05-23T09:01:37.795Z,25.68
2019-05-23T09:04:10.171Z,26.11
2019-05-23T09:06:42.621Z,26.43
2019-05-23T09:09:29.016Z,27.44
2019-05-23T09:11:49.707Z,27.39
2019-05-23T09:14:21.853Z,27.93
2019-05-23T09:16:53.233Z,27.84
2019-05-23T09:19:24.886Z,26.20
2019-05-23T09:21:58.023Z,26.42
2019-05-23T09:24:28.713Z,27.40
2019-05-23T09:27:00.706Z,26.83
2019-05-23T09:29:32.656Z,26.63
2019-05-23T09:32:04.212Z,26.84
2019-05-23T09:34:35.274Z,26.70
2019-05-23T09:37:08.279Z,26.23
2019-05-23T09:39:41.339Z,26.95
2019-05-23T09:42:12.713Z,28.02
2019-05-23T09:44:44.037Z,27.61
2019-05-23T09:47:15.366Z,26.58
2019-05-23T09:49:53.664Z,27.25
2019-05-23T09:52:21.606Z,26.80
2019-05-23T09:54:52.579Z,26.74
2019-05-23T09:57:23.640Z,26.63
2019-05-23T09:59:57.010Z,26.54
2019-05-23T10:02:28.246Z,25.41
2019-05-23T10:04:59.279Z,26.12
2019-05-23T10:07:30.628Z,26.46
2019-05-23T10:10:01.632Z,26.03
2019-05-23T10:12:33.872Z,26.04
2019-05-23T10:15:05.535Z,26.33
2019-05-23T10:17:36.890Z,26.80
2019-05-23T10:20:08.347Z,26.85
2019-05-23T10:22:39.873Z,27.26
2019-05-23T10:25:11.092Z,26.65
2019-05-23T10:27:42.419Z,26.54
2019-05-23T10:30:15.225Z,25.98
2019-05-23T10:32:46.712Z,26.65
2019-05-23T10:35:18.231Z,26.39
2019-05-23T10:37:49.325Z,26.27
2019-05-23T10:40:22.132Z,25.54
2019-05-23T10:42:53.161Z,26.02
2019-05-23T10:45:24.199Z,25.48
2019-05-23T10:47:55.657Z,25.91
2019-05-23T10:50:26.742Z,25.49
2019-05-23T10:52:57.991Z,27.78
2019-05-23T10:55:29.100Z,27.06
2019-05-23T10:58:01.453Z,27.56
2019-05-23T11:00:32.905Z,26.50
2019-05-23T11:03:04.332Z,26.16
2019-05-23T11:05:36.419Z,27.04
2019-05-23T11:08:07.576Z,27.08
2019-05-23T11:10:39.131Z,25.69
2019-05-23T11:13:10.510Z,26.19
2019-05-23T11:15:42.252Z,27.51
2019-05-23T11:18:14.172Z,27.50
2019-05-23T11:20:45.687Z,26.08
2019-05-23T11:23:25.750Z,26.32
2019-05-23T11:26:00.883Z,27.20
2019-05-23T11:28:31.720Z,27.43
2019-05-23T11:31:03.156Z,26.36
2019-05-23T11:33:34.545Z,26.78
2019-05-23T11:36:06.766Z,27.01
2019-05-23T11:38:38.061Z,26.24
2019-05-23T11:41:09.660Z,26.97
2019-05-23T11:43:41.986Z,26.67
2019-05-23T11:46:30.752Z,26.69
2019-05-23T11:49:03.234Z,26.75
2019-05-23T11:51:35.881Z,26.79
2019-05-23T11:54:09.695Z,26.39
2019-05-23T11:56:42.703Z,27.26
2019-05-23T11:59:13.816Z,26.83
2019-05-23T12:02:07.517Z,27.07
2019-05-23T12:04:42.956Z,27.14
2019-05-23T12:07:18.204Z,27.23
2019-05-23T12:09:49.527Z,27.39
2019-05-23T12:12:20.777Z,25.48
2019-05-23T12:14:53.540Z,26.87
2019-05-23T12:17:26.459Z,27.39
2019-05-23T12:19:57.624Z,27.14
2019-05-23T12:22:29.488Z,27.45
2019-05-23T12:25:18.303Z,26.41
2019-05-23T12:27:33.178Z,27.05
2019-05-23T12:30:06.382Z,27.31
2019-05-23T12:32:38.719Z,27.38
2019-05-23T12:35:11.828Z,27.95
2019-05-23T12:37:42.851Z,27.62
2019-05-23T12:40:14.471Z,26.00
2019-05-23T12:42:45.884Z,25.95
2019-05-23T12:45:17.484Z,26.74
2019-05-23T12:47:56.979Z,26.06
2019-05-23T12:50:32.410Z,26.39
2019-05-23T12:53:03.533Z,26.36
2019-05-23T12:55:35.163Z,26.94
2019-05-23T12:58:06.517Z,27.19
2019-05-23T13:00:45.240Z,27.18
2019-05-23T13:03:16.601Z,26.48
2019-05-23T13:05:48.027Z,25.57
2019-05-23T13:08:19.772Z,25.85
2019-05-23T13:10:51.317Z,26.26
2019-05-23T13:13:22.648Z,26.12
2019-05-23T13:15:54.043Z,26.49
2019-05-23T13:18:25.657Z,26.05
2019-05-23T13:20:59.546Z,26.41
2019-05-23T13:23:30.098Z,26.38
2019-05-23T13:26:01.320Z,26.47
2019-05-23T13:28:32.454Z,26.33
2019-05-23T13:31:03.734Z,26.16
2019-05-23T13:33:35.095Z,26.16
2019-05-23T13:36:07.550Z,27.08
2019-05-23T13:38:38.739Z,26.84
2019-05-23T13:41:10.331Z,25.77
2019-05-23T13:43:41.549Z,26.07
2019-05-23T13:46:12.603Z,26.07
2019-05-23T13:48:43.619Z,26.25
2019-05-23T13:51:15.604Z,25.66
2019-05-23T13:53:48.380Z,25.80
2019-05-23T13:56:20.119Z,25.72
2019-05-23T13:58:53.125Z,26.68
2019-05-23T14:01:24.815Z,26.24
2019-05-23T14:03:58.380Z,26.46
2019-05-23T14:06:30.465Z,26.87
2019-05-23T14:09:01.544Z,26.90
2019-05-23T14:11:33.770Z,26.83
2019-05-23T14:14:06.273Z,25.63
2019-05-23T14:16:46.876Z,26.48
2019-05-23T14:19:18.324Z,27.09
2019-05-23T14:21:49.706Z,27.36
2019-05-23T14:24:20.757Z,27.81
2019-05-23T14:26:59.246Z,28.39
2019-05-23T14:29:30.762Z,28.25
2019-05-23T14:32:20.060Z,28.76
2019-05-23T14:34:51.124Z,28.18
2019-05-23T14:37:28.594Z,29.14
2019-05-23T14:40:09.226Z,28.68
2019-05-23T14:42:47.009Z,28.88
2019-05-23T14:45:36.381Z,28.80
2019-05-23T14:48:25.819Z,29.06
2019-05-23T14:51:04.127Z,28.75
2019-05-23T14:53:35.820Z,29.54
2019-05-23T14:56:07.461Z,29.15
2019-05-23T14:58:39.029Z,29.04
2019-05-23T15:01:11.524Z,28.98
2019-05-23T15:03:43.494Z,29.68
2019-05-23T15:06:14.645Z,29.16
2019-05-23T15:08:51.343Z,29.16
2019-05-23T15:11:19.744Z,29.08
2019-05-23T15:13:51.049Z,29.06
2019-05-23T15:16:22.532Z,29.62
2019-05-23T15:18:53.589Z,29.62
2019-05-23T15:21:24.682Z,29.35
2019-05-23T15:23:59.981Z,29.63
2019-05-23T15:26:31.214Z,29.59
2019-05-23T15:29:02.624Z,29.55
2019-05-23T15:31:33.904Z,29.41
2019-05-23T15:34:05.221Z,29.74
2019-05-23T15:36:36.489Z,30.03
2019-05-23T15:39:10.539Z,29.73
2019-05-23T15:41:44.551Z,30.75
2019-05-23T15:44:26.622Z,30.21
2019-05-23T15:46:52.930Z,30.51
2019-05-23T15:49:24.262Z,30.61
2019-05-23T15:52:14.377Z,30.90
2019-05-23T15:54:50.179Z,29.57
2019-05-23T15:57:38.902Z,31.00
2019-05-23T16:00:28.227Z,30.98
2019-05-23T16:03:13.704Z,31.12
2019-05-23T16:05:45.312Z,31.25
2019-05-23T16:08:16.836Z,31.47
2019-05-23T16:10:48.002Z,31.45
2019-05-23T16:13:18.978Z,31.34
2019-05-23T16:15:50.119Z,30.83
2019-05-23T16:18:32.865Z,31.15
2019-05-23T16:21:04.226Z,30.89
2019-05-23T16:23:35.250Z,30.91
2019-05-23T16:26:06.780Z,31.12
2019-05-23T16:28:38.126Z,31.12
2019-05-23T16:31:09.709Z,30.95
2019-05-23T16:33:40.995Z,31.52
2019-05-23T16:36:12.380Z,30.74
2019-05-23T16:38:43.887Z,30.56
2019-05-23T16:41:14.834Z,30.54
2019-05-23T16:43:46.100Z,31.14
2019-05-23T16:46:17.614Z,30.83
2019-05-23T16:48:48.630Z,31.64
2019-05-23T16:51:19.737Z,31.68
2019-05-23T16:53:51.535Z,31.94
2019-05-23T16:56:33.688Z,32.41
2019-05-23T16:59:22.724Z,32.84
2019-05-23T17:02:06.729Z,32.97
2019-05-23T17:04:45.708Z,32.39
2019-05-23T17:07:30.077Z,32.49
2019-05-23T17:10:12.346Z,32.58
2019-05-23T17:13:02.445Z,32.43
2019-05-23T17:15:54.258Z,32.94
2019-05-23T17:18:43.431Z,32.96
2019-05-23T17:21:27.852Z,32.96
2019-05-23T17:24:09.639Z,32.30
2019-05-23T17:26:55.248Z,32.42
2019-05-23T17:29:31.642Z,32.58
2019-05-23T17:32:04.600Z,32.59
2019-05-23T17:34:36.787Z,34.13
2019-05-23T17:37:10.441Z,33.43
2019-05-23T17:39:44.647Z,33.91
2019-05-23T17:42:15.987Z,33.55
2019-05-23T17:44:47.957Z,34.36
2019-05-23T17:47:19.412Z,33.51
2019-05-23T17:49:50.934Z,33.27
2019-05-23T17:52:23.530Z,34.16
2019-05-23T17:54:55.094Z,34.74
2019-05-23T17:57:26.807Z,34.08
2019-05-23T17:59:58.048Z,34.29
2019-05-23T18:02:30.512Z,35.23
2019-05-23T18:05:02.158Z,35.11
2019-05-23T18:07:35.071Z,35.41
2019-05-23T18:10:06.920Z,35.58
2019-05-23T18:12:38.228Z,35.25
2019-05-23T18:15:12.348Z,34.42
2019-05-23T18:17:45.007Z,35.45
2019-05-23T18:20:16.354Z,35.50
2019-05-23T18:22:47.757Z,36.04
2019-05-23T18:25:19.426Z,35.67
2019-05-23T18:27:51.664Z,35.88
2019-05-23T18:30:45.324Z,36.01
2019-05-23T18:33:19.552Z,35.53
2019-05-23T18:35:51.810Z,35.63
2019-05-23T18:38:23.297Z,35.25
2019-05-23T18:41:03.996Z,35.98
2019-05-23T18:43:28.677Z,37.00
2019-05-23T18:46:02.593Z,38.17
2019-05-23T18:48:35.069Z,38.76
2019-05-23T18:51:06.652Z,38.95
2019-05-23T18:53:38.173Z,39.50
2019-05-23T18:56:09.253Z,39.27
2019-05-23T18:58:40.371Z,39.86
2019-05-23T19:01:14.080Z,40.02
2019-05-23T19:03:45.105Z,39.71
2019-05-23T19:06:16.495Z,39.91
2019-05-23T19:08:49.901Z,39.34
2019-05-23T19:11:21.973Z,39.48
2019-05-23T19:13:53.404Z,39.98
2019-05-23T19:16:24.635Z,40.31
2019-05-23T19:18:56.583Z,40.63
2019-05-23T19:21:29.449Z,41.11
2019-05-23T19:24:01.210Z,41.15
2019-05-23T19:26:33.491Z,40.70
2019-05-23T19:29:04.958Z,40.87
2019-05-23T19:31:36.378Z,41.66
2019-05-23T19:34:07.850Z,40.92
2019-05-23T19:36:39.396Z,40.54
2019-05-23T19:39:11.611Z,41.07
2019-05-23T19:41:43.321Z,41.31
2019-05-23T19:44:14.692Z,41.31
2019-05-23T19:46:45.690Z,41.28
2019-05-23T19:49:16.807Z,41.80
2019-05-23T19:51:47.923Z,42.50
2019-05-23T19:54:19.660Z,43.02
2019-05-23T19:56:50.741Z,43.31
2019-05-23T19:59:22.186Z,44.26
2019-05-23T20:02:15.415Z,43.89
2019-05-23T20:04:53.260Z,44.48
2019-05-23T20:07:24.436Z,44.25
2019-05-23T20:09:57.487Z,43.89
2019-05-23T20:12:28.830Z,44.41
2019-05-23T20:15:00.953Z,45.00
2019-05-23T20:17:33.243Z,45.67
2019-05-23T20:20:05.067Z,46.07
2019-05-23T20:22:36.066Z,45.23
2019-05-23T20:25:07.688Z,45.68
2019-05-23T20:27:38.679Z,46.29
2019-05-23T20:30:13.177Z,46.99
2019-05-23T20:32:44.312Z,46.98
2019-05-23T20:35:15.551Z,46.94
2019-05-23T20:37:46.690Z,47.15
2019-05-23T20:40:17.753Z,47.28
2019-05-23T20:42:48.772Z,47.30
2019-05-23T20:45:19.879Z,47.71
2019-05-23T20:47:51.108Z,48.15
2019-05-23T20:50:22.179Z,47.73
2019-05-23T20:52:54.025Z,47.99
2019-05-23T20:55:25.112Z,48.13
2019-05-23T20:57:56.448Z,47.87
2019-05-23T21:00:45.347Z,47.85
2019-05-23T21:03:16.990Z,48.07
2019-05-23T21:05:48.380Z,48.39
2019-05-23T21:08:20.878Z,48.91
2019-05-23T21:10:52.255Z,49.36
2019-05-23T21:13:23.354Z,48.60
2019-05-23T21:15:54.959Z,49.09
2019-05-23T21:18:35.182Z,49.86
2019-05-23T21:21:07.432Z,48.39
2019-05-23T21:23:38.921Z,48.54
2019-05-23T21:26:10.003Z,48.18
2019-05-23T21:28:41.038Z,48.26
2019-05-23T21:31:17.047Z,48.69
2019-05-23T21:33:48.316Z,48.54
2019-05-23T21:36:19.656Z,49.29
2019-05-23T21:38:50.955Z,50.10
2019-05-23T21:41:22.008Z,49.22
2019-05-23T21:43:54.798Z,49.15
2019-05-23T21:46:26.144Z,49.50
2019-05-23T21:48:57.457Z,49.53
2019-05-23T21:51:28.518Z,49.37
2019-05-23T21:53:59.821Z,49.72
2019-05-23T21:56:31.058Z,49.86
2019-05-23T21:59:02.365Z,49.90
2019-05-23T22:01:38.651Z,50.02
2019-05-23T22:04:30.415Z,50.18
2019-05-23T22:07:02.788Z,50.47
2019-05-23T22:09:34.532Z,50.43
2019-05-23T22:12:06.633Z,49.79
2019-05-23T22:14:37.715Z,50.01
2019-05-23T22:17:08.685Z,50.03
2019-05-23T22:19:39.910Z,49.50
2019-05-23T22:22:11.171Z,49.49
2019-05-23T22:24:42.552Z,49.98
2019-05-23T22:27:13.627Z,50.43
2019-05-23T22:29:44.733Z,50.28
2019-05-23T22:32:17.464Z,50.03
2019-05-23T22:34:56.723Z,50.17
2019-05-23T22:37:29.694Z,50.53
2019-05-23T22:40:00.750Z,50.76
2019-05-23T22:42:32.038Z,51.31
2019-05-23T22:45:04.713Z,50.76
2019-05-23T22:47:35.923Z,51.08
2019-05-23T22:50:07.801Z,50.94
2019-05-23T22:52:38.812Z,50.84
2019-05-23T22:55:09.886Z,50.85
2019-05-23T22:57:40.850Z,51.04
2019-05-23T23:00:14.039Z,51.40
2019-05-23T23:02:46.060Z,51.37
2019-05-23T23:05:17.354Z,51.43
2019-05-23T23:07:48.788Z,51.70
2019-05-23T23:10:19.789Z,51.81
2019-05-23T23:12:50.817Z,51.99
2019-05-23T23:15:22.055Z,52.17
2019-05-23T23:17:53.139Z,52.14
2019-05-23T23:20:24.354Z,52.47
2019-05-23T23:22:55.343Z,52.47
2019-05-23T23:25:26.312Z,51.79
2019-05-23T23:27:57.782Z,51.96
2019-05-23T23:30:31.761Z,51.86
2019-05-23T23:33:03.014Z,51.91
2019-05-23T23:35:34.186Z,52.26
2019-05-23T23:38:05.515Z,52.16
2019-05-23T23:40:36.602Z,52.48
2019-05-23T23:43:07.608Z,52.48
2019-05-23T23:45:56.520Z,52.51
2019-05-23T23:48:45.312Z,52.51
2019-05-23T23:51:34.010Z,52.52
2019-05-23T23:54:22.447Z,53.09
2019-05-23T23:57:11.011Z,53.44
2019-05-23T23:59:42.679Z,53.90
